sensor_id;sensor_type;location;lat;lon;timestamp;pressure;altitude;pressure_sealevel;temperature;humidity
28626;BME280;18905;42.668;23.364;2023-10-09T00:01:43;95544.31;;;18.78;100.00
28626;BME280;18905;42.668;23.364;2023-10-09T00:04:10;95551.13;;;18.88;100.00
28626;BME280;18905;42.668;23.364;2023-10-09T00:06:36;95546.31;;;18.81;100.00
28626;BME280;18905;42.668;23.364;2023-10-09T00:09:05;95555.03;;;18.87;100.00
28626;BME280;18905;42.668;23.364;2023-10-09T00:11:43;95539.13;;;18.73;100.00
28626;BME280;18905;42.668;23.364;2023-10-09T00:14:10;95539.81;;;18.70;100.00
28626;BME280;18905;42.668;23.364;2023-10-09T00:16:36;95569.66;;;19.13;100.00
28626;BME280;18905;42.668;23.364;2023-10-09T00:19:08;95557.41;;;18.88;100.00
28626;BME280;18905;42.668;23.364;2023-10-09T00:21:51;95565.41;;;18.62;100.00
28626;BME280;18905;42.668;23.364;2023-10-09T00:24:20;95554.50;;;18.81;100.00
28626;BME280;18905;42.668;23.364;2023-10-09T00:26:52;95551.06;;;18.84;100.00
28626;BME280;18905;42.668;23.364;2023-10-09T00:29:21;95566.59;;;18.46;100.00
28626;BME280;18905;42.668;23.364;2023-10-09T00:31:53;95550.66;;;18.82;100.00
28626;BME280;18905;42.668;23.364;2023-10-09T00:34:42;95557.69;;;18.49;100.00
28626;BME280;18905;42.668;23.364;2023-10-09T00:37:08;95527.31;;;18.35;100.00
28626;BME280;18905;42.668;23.364;2023-10-09T00:39:48;95553.41;;;18.17;100.00
28626;BME280;18905;42.668;23.364;2023-10-09T00:42:21;95565.28;;;18.24;100.00
28626;BME280;18905;42.668;23.364;2023-10-09T00:44:54;95567.13;;;18.20;100.00
28626;BME280;18905;42.668;23.364;2023-10-09T00:47:19;95547.31;;;17.92;100.00
28626;BME280;18905;42.668;23.364;2023-10-09T00:52:14;95569.34;;;17.84;100.00
28626;BME280;18905;42.668;23.364;2023-10-09T00:54:48;95578.47;;;17.60;100.00
28626;BME280;18905;42.668;23.364;2023-10-09T00:57:18;95579.44;;;17.52;100.00
28626;BME280;18905;42.668;23.364;2023-10-09T00:59:48;95577.63;;;17.44;100.00
28626;BME280;18905;42.668;23.364;2023-10-09T01:02:24;95575.38;;;17.34;100.00
28626;BME280;18905;42.668;23.364;2023-10-09T01:05:01;95563.22;;;17.32;100.00
28626;BME280;18905;42.668;23.364;2023-10-09T01:07:36;95540.72;;;17.07;100.00
28626;BME280;18905;42.668;23.364;2023-10-09T01:10:05;95608.81;;;17.43;100.00
28626;BME280;18905;42.668;23.364;2023-10-09T01:12:34;95597.69;;;17.36;100.00
28626;BME280;18905;42.668;23.364;2023-10-09T01:15:07;95589.28;;;17.02;100.00
28626;BME280;18905;42.668;23.364;2023-10-09T01:17:33;95599.47;;;17.17;100.00
28626;BME280;18905;42.668;23.364;2023-10-09T01:20:02;95599.00;;;17.15;100.00
28626;BME280;18905;42.668;23.364;2023-10-09T01:22:40;95605.50;;;17.10;100.00
28626;BME280;18905;42.668;23.364;2023-10-09T01:25:07;95625.09;;;16.88;100.00
28626;BME280;18905;42.668;23.364;2023-10-09T01:27:33;95619.41;;;16.93;100.00
28626;BME280;18905;42.668;23.364;2023-10-09T01:29:59;95602.59;;;16.91;100.00
28626;BME280;18905;42.668;23.364;2023-10-09T01:32:25;95613.00;;;16.62;100.00
28626;BME280;18905;42.668;23.364;2023-10-09T01:34:52;95630.94;;;16.63;100.00
28626;BME280;18905;42.668;23.364;2023-10-09T01:37:20;95627.63;;;16.81;100.00
28626;BME280;18905;42.668;23.364;2023-10-09T01:39:58;95624.00;;;16.65;100.00
28626;BME280;18905;42.668;23.364;2023-10-09T01:42:41;95619.22;;;16.62;100.00
28626;BME280;18905;42.668;23.364;2023-10-09T01:45:13;95602.56;;;16.40;100.00
28626;BME280;18905;42.668;23.364;2023-10-09T01:47:55;95657.72;;;16.37;100.00
28626;BME280;18905;42.668;23.364;2023-10-09T01:50:20;95660.59;;;16.40;100.00
28626;BME280;18905;42.668;23.364;2023-10-09T01:53:00;95641.41;;;16.49;100.00
28626;BME280;18905;42.668;23.364;2023-10-09T01:55:27;95617.31;;;16.15;100.00
28626;BME280;18905;42.668;23.364;2023-10-09T01:57:55;95663.94;;;16.25;100.00
28626;BME280;18905;42.668;23.364;2023-10-09T02:00:23;95669.53;;;16.29;100.00
28626;BME280;18905;42.668;23.364;2023-10-09T02:02:50;95667.81;;;16.24;100.00
28626;BME280;18905;42.668;23.364;2023-10-09T02:05:16;95658.09;;;16.35;100.00
28626;BME280;18905;42.668;23.364;2023-10-09T02:07:42;95676.78;;;16.37;100.00
28626;BME280;18905;42.668;23.364;2023-10-09T02:10:17;95677.59;;;16.37;100.00
28626;BME280;18905;42.668;23.364;2023-10-09T02:13:00;95686.88;;;16.12;100.00
28626;BME280;18905;42.668;23.364;2023-10-09T02:15:32;95686.59;;;15.93;100.00
28626;BME280;18905;42.668;23.364;2023-10-09T02:18:08;95693.16;;;16.25;100.00
28626;BME280;18905;42.668;23.364;2023-10-09T02:20:47;95679.06;;;15.78;100.00
28626;BME280;18905;42.668;23.364;2023-10-09T02:23:37;95696.94;;;15.88;100.00
28626;BME280;18905;42.668;23.364;2023-10-09T02:26:10;95689.78;;;15.63;100.00
28626;BME280;18905;42.668;23.364;2023-10-09T02:28:46;95703.72;;;15.61;100.00
28626;BME280;18905;42.668;23.364;2023-10-09T02:31:24;95697.97;;;15.95;100.00
28626;BME280;18905;42.668;23.364;2023-10-09T02:33:52;95686.34;;;15.54;100.00
28626;BME280;18905;42.668;23.364;2023-10-09T02:36:24;95705.88;;;15.56;100.00
28626;BME280;18905;42.668;23.364;2023-10-09T02:38:49;95713.97;;;15.44;100.00
28626;BME280;18905;42.668;23.364;2023-10-09T02:41:18;95672.41;;;14.94;100.00
28626;BME280;18905;42.668;23.364;2023-10-09T02:43:46;95694.66;;;15.16;100.00
28626;BME280;18905;42.668;23.364;2023-10-09T02:46:14;95697.91;;;15.30;100.00
28626;BME280;18905;42.668;23.364;2023-10-09T02:48:47;95705.59;;;15.28;100.00
28626;BME280;18905;42.668;23.364;2023-10-09T02:51:22;95709.69;;;15.14;100.00
28626;BME280;18905;42.668;23.364;2023-10-09T02:53:54;95730.59;;;15.01;100.00
28626;BME280;18905;42.668;23.364;2023-10-09T02:56:22;95722.38;;;15.10;100.00
28626;BME280;18905;42.668;23.364;2023-10-09T02:58:53;95732.53;;;15.21;100.00
28626;BME280;18905;42.668;23.364;2023-10-09T03:01:18;95737.31;;;15.24;100.00
28626;BME280;18905;42.668;23.364;2023-10-09T03:03:44;95737.97;;;15.21;100.00
28626;BME280;18905;42.668;23.364;2023-10-09T03:06:11;95736.50;;;15.03;100.00
28626;BME280;18905;42.668;23.364;2023-10-09T03:08:38;95734.72;;;14.78;100.00
28626;BME280;18905;42.668;23.364;2023-10-09T03:11:07;95748.59;;;14.85;100.00
28626;BME280;18905;42.668;23.364;2023-10-09T03:13:41;95717.91;;;14.56;100.00
28626;BME280;18905;42.668;23.364;2023-10-09T03:16:13;95711.41;;;14.40;100.00
28626;BME280;18905;42.668;23.364;2023-10-09T03:18:47;95742.16;;;14.61;100.00
28626;BME280;18905;42.668;23.364;2023-10-09T03:21:14;95745.56;;;14.49;100.00
28626;BME280;18905;42.668;23.364;2023-10-09T03:23:40;95763.69;;;14.37;100.00
28626;BME280;18905;42.668;23.364;2023-10-09T03:26:07;95758.78;;;14.59;100.00
28626;BME280;18905;42.668;23.364;2023-10-09T03:28:33;95787.72;;;14.64;100.00
28626;BME280;18905;42.668;23.364;2023-10-09T03:30:59;95752.53;;;14.13;100.00
28626;BME280;18905;42.668;23.364;2023-10-09T03:33:30;95770.47;;;13.97;100.00
28626;BME280;18905;42.668;23.364;2023-10-09T03:35:59;95774.59;;;14.03;100.00
28626;BME280;18905;42.668;23.364;2023-10-09T03:38:25;95780.00;;;14.20;100.00
28626;BME280;18905;42.668;23.364;2023-10-09T03:40:54;95784.34;;;14.21;100.00
28626;BME280;18905;42.668;23.364;2023-10-09T03:43:20;95798.22;;;14.28;100.00
28626;BME280;18905;42.668;23.364;2023-10-09T03:45:47;95791.19;;;14.27;100.00
28626;BME280;18905;42.668;23.364;2023-10-09T03:48:19;95762.25;;;14.31;100.00
28626;BME280;18905;42.668;23.364;2023-10-09T03:50:52;95769.72;;;14.51;100.00
28626;BME280;18905;42.668;23.364;2023-10-09T03:53:38;95765.31;;;14.67;100.00
28626;BME280;18905;42.668;23.364;2023-10-09T03:56:08;95795.06;;;14.63;100.00
28626;BME280;18905;42.668;23.364;2023-10-09T03:58:42;95794.94;;;14.51;100.00
28626;BME280;18905;42.668;23.364;2023-10-09T04:01:13;95674.69;;;13.79;100.00
28626;BME280;18905;42.668;23.364;2023-10-09T04:03:48;95804.19;;;14.59;100.00
28626;BME280;18905;42.668;23.364;2023-10-09T04:06:14;95737.25;;;14.83;100.00
28626;BME280;18905;42.668;23.364;2023-10-09T04:08:44;95688.69;;;13.98;100.00
28626;BME280;18905;42.668;23.364;2023-10-09T04:11:13;95807.91;;;14.54;100.00
28626;BME280;18905;42.668;23.364;2023-10-09T04:13:45;95661.84;;;14.43;100.00
28626;BME280;18905;42.668;23.364;2023-10-09T04:16:12;95679.41;;;13.99;100.00
28626;BME280;18905;42.668;23.364;2023-10-09T04:19:01;95691.88;;;14.00;100.00
28626;BME280;18905;42.668;23.364;2023-10-09T04:21:39;95730.78;;;14.30;100.00
28626;BME280;18905;42.668;23.364;2023-10-09T04:24:08;95651.81;;;13.89;100.00
28626;BME280;18905;42.668;23.364;2023-10-09T04:26:58;95702.72;;;14.00;100.00
28626;BME280;18905;42.668;23.364;2023-10-09T04:32:36;95759.84;;;14.29;100.00
28626;BME280;18905;42.668;23.364;2023-10-09T04:35:10;95701.22;;;14.28;100.00
28626;BME280;18905;42.668;23.364;2023-10-09T04:40:27;95800.63;;;14.21;100.00
28626;BME280;18905;42.668;23.364;2023-10-09T05:09:44;95739.16;;;13.99;100.00
28626;BME280;18905;42.668;23.364;2023-10-09T05:12:21;95723.91;;;13.18;100.00
28626;BME280;18905;42.668;23.364;2023-10-09T05:14:57;95719.91;;;13.33;100.00
28626;BME280;18905;42.668;23.364;2023-10-09T05:17:35;95731.81;;;12.81;100.00
28626;BME280;18905;42.668;23.364;2023-10-09T05:20:04;95762.34;;;13.29;100.00
28626;BME280;18905;42.668;23.364;2023-10-09T05:23:06;95850.31;;;13.79;100.00
28626;BME280;18905;42.668;23.364;2023-10-09T05:25:51;95842.31;;;13.48;100.00
28626;BME280;18905;42.668;23.364;2023-10-09T05:28:21;95818.84;;;13.44;100.00
28626;BME280;18905;42.668;23.364;2023-10-09T05:31:15;95769.06;;;13.31;100.00
28626;BME280;18905;42.668;23.364;2023-10-09T05:33:58;95834.50;;;13.72;100.00
28626;BME280;18905;42.668;23.364;2023-10-09T05:36:29;95776.25;;;13.36;100.00
28626;BME280;18905;42.668;23.364;2023-10-09T05:38:55;95780.69;;;13.06;100.00
28626;BME280;18905;42.668;23.364;2023-10-09T05:41:47;95769.69;;;13.11;99.67
28626;BME280;18905;42.668;23.364;2023-10-09T05:44:17;95753.81;;;12.96;100.00
28626;BME280;18905;42.668;23.364;2023-10-09T05:47:02;95788.22;;;13.43;100.00
28626;BME280;18905;42.668;23.364;2023-10-09T05:49:46;95880.16;;;14.13;100.00
28626;BME280;18905;42.668;23.364;2023-10-09T05:52:24;95842.63;;;14.06;100.00
28626;BME280;18905;42.668;23.364;2023-10-09T05:55:16;95816.09;;;14.46;100.00
28626;BME280;18905;42.668;23.364;2023-10-09T05:58:01;95807.19;;;14.03;98.41
28626;BME280;18905;42.668;23.364;2023-10-09T06:00:45;95757.09;;;13.58;97.63
28626;BME280;18905;42.668;23.364;2023-10-09T06:03:29;95884.84;;;14.21;99.14
28626;BME280;18905;42.668;23.364;2023-10-09T06:08:48;95763.38;;;15.54;100.00
28626;BME280;18905;42.668;23.364;2023-10-09T06:11:33;95910.84;;;17.48;84.05
28626;BME280;18905;42.668;23.364;2023-10-09T06:14:01;95888.31;;;17.51;72.33
28626;BME280;18905;42.668;23.364;2023-10-09T06:16:33;95881.13;;;17.82;71.51
28626;BME280;18905;42.668;23.364;2023-10-09T06:19:13;95825.66;;;18.92;81.03
28626;BME280;18905;42.668;23.364;2023-10-09T06:21:53;95880.34;;;20.54;63.22
28626;BME280;18905;42.668;23.364;2023-10-09T06:24:37;95928.56;;;20.36;52.50
28626;BME280;18905;42.668;23.364;2023-10-09T06:27:18;95885.63;;;20.43;51.32
28626;BME280;18905;42.668;23.364;2023-10-09T06:29:57;95929.44;;;21.84;48.14
28626;BME280;18905;42.668;23.364;2023-10-09T06:32:38;95917.69;;;19.12;52.32
28626;BME280;18905;42.668;23.364;2023-10-09T06:35:15;95932.31;;;17.97;55.08
28626;BME280;18905;42.668;23.364;2023-10-09T06:37:49;95930.63;;;19.58;55.65
28626;BME280;18905;42.668;23.364;2023-10-09T06:40:28;95921.97;;;19.56;67.67
28626;BME280;18905;42.668;23.364;2023-10-09T06:43:12;95933.63;;;18.27;60.73
28626;BME280;18905;42.668;23.364;2023-10-09T06:45:50;95924.63;;;19.09;61.67
28626;BME280;18905;42.668;23.364;2023-10-09T06:48:34;95917.56;;;19.08;56.11
28626;BME280;18905;42.668;23.364;2023-10-09T06:53:33;95926.38;;;18.59;58.81
28626;BME280;18905;42.668;23.364;2023-10-09T06:56:17;95940.84;;;20.61;53.88
28626;BME280;18905;42.668;23.364;2023-10-09T06:58:51;95935.00;;;22.13;52.53
28626;BME280;18905;42.668;23.364;2023-10-09T07:01:46;95928.47;;;19.82;53.21
28626;BME280;18905;42.668;23.364;2023-10-09T07:04:16;95935.28;;;19.26;48.96
28626;BME280;18905;42.668;23.364;2023-10-09T07:07:02;95940.19;;;18.78;58.08
28626;BME280;18905;42.668;23.364;2023-10-09T07:09:32;95932.22;;;19.74;53.34
28626;BME280;18905;42.668;23.364;2023-10-09T07:12:16;95946.91;;;20.51;53.73
28626;BME280;18905;42.668;23.364;2023-10-09T07:14:52;95945.75;;;20.52;49.97
28626;BME280;18905;42.668;23.364;2023-10-09T07:17:26;95939.63;;;19.58;47.30
28626;BME280;18905;42.668;23.364;2023-10-09T07:20:10;95921.06;;;19.21;48.05
28626;BME280;18905;42.668;23.364;2023-10-09T07:22:40;95934.22;;;20.81;49.53
28626;BME280;18905;42.668;23.364;2023-10-09T07:25:19;95939.13;;;19.37;48.49
28626;BME280;18905;42.668;23.364;2023-10-09T07:27:54;95936.19;;;21.00;47.32
28626;BME280;18905;42.668;23.364;2023-10-09T07:30:21;95965.75;;;20.33;46.11
28626;BME280;18905;42.668;23.364;2023-10-09T07:33:03;95958.13;;;19.61;45.81
28626;BME280;18905;42.668;23.364;2023-10-09T07:35:35;95940.97;;;18.63;47.05
28626;BME280;18905;42.668;23.364;2023-10-09T07:38:15;95939.91;;;19.53;52.77
28626;BME280;18905;42.668;23.364;2023-10-09T07:40:45;95942.56;;;19.65;47.56
28626;BME280;18905;42.668;23.364;2023-10-09T07:43:24;95952.66;;;20.27;43.72
28626;BME280;18905;42.668;23.364;2023-10-09T07:46:18;95947.50;;;20.60;46.06
28626;BME280;18905;42.668;23.364;2023-10-09T07:49:00;95942.13;;;20.29;48.55
28626;BME280;18905;42.668;23.364;2023-10-09T07:51:34;95943.69;;;21.89;47.19
28626;BME280;18905;42.668;23.364;2023-10-09T07:54:01;95944.88;;;23.03;42.68
28626;BME280;18905;42.668;23.364;2023-10-09T07:56:39;95940.09;;;20.99;45.80
28626;BME280;18905;42.668;23.364;2023-10-09T07:59:07;95951.03;;;19.29;44.23
28626;BME280;18905;42.668;23.364;2023-10-09T08:01:56;95948.66;;;20.59;42.23
28626;BME280;18905;42.668;23.364;2023-10-09T08:04:27;95943.25;;;19.62;42.91
28626;BME280;18905;42.668;23.364;2023-10-09T08:07:13;95950.34;;;19.05;44.03
28626;BME280;18905;42.668;23.364;2023-10-09T08:09:47;95941.78;;;20.87;47.70
28626;BME280;18905;42.668;23.364;2023-10-09T08:12:36;95944.81;;;21.66;42.15
28626;BME280;18905;42.668;23.364;2023-10-09T08:15:24;95938.94;;;19.77;40.80
28626;BME280;18905;42.668;23.364;2023-10-09T08:18:16;95934.22;;;19.77;45.49
28626;BME280;18905;42.668;23.364;2023-10-09T08:20:54;95945.53;;;19.91;47.16
28626;BME280;18905;42.668;23.364;2023-10-09T08:23:23;95926.75;;;20.24;43.74
28626;BME280;18905;42.668;23.364;2023-10-09T13:39:00;95505.63;;;22.72;31.15
28626;BME280;18905;42.668;23.364;2023-10-09T13:41:51;95366.91;;;21.65;32.63
28626;BME280;18905;42.668;23.364;2023-10-09T13:44:32;95458.53;;;22.30;30.89
28626;BME280;18905;42.668;23.364;2023-10-09T13:47:03;95448.25;;;22.17;32.30
28626;BME280;18905;42.668;23.364;2023-10-09T13:49:34;95500.47;;;22.64;29.27
28626;BME280;18905;42.668;23.364;2023-10-09T13:52:03;95408.03;;;22.02;30.48
28626;BME280;18905;42.668;23.364;2023-10-09T13:54:32;95494.13;;;22.56;29.89
28626;BME280;18905;42.668;23.364;2023-10-09T13:57:01;95489.81;;;22.08;29.84
28626;BME280;18905;42.668;23.364;2023-10-09T13:59:29;95484.94;;;22.38;29.93
28626;BME280;18905;42.668;23.364;2023-10-09T14:01:56;95476.59;;;22.24;29.90
28626;BME280;18905;42.668;23.364;2023-10-09T14:04:25;95438.16;;;22.35;31.66
28626;BME280;18905;42.668;23.364;2023-10-09T14:06:51;95382.47;;;21.47;30.31
28626;BME280;18905;42.668;23.364;2023-10-09T14:09:25;95344.72;;;21.41;31.60
28626;BME280;18905;42.668;23.364;2023-10-09T14:12:01;95334.50;;;21.85;32.75
28626;BME280;18905;42.668;23.364;2023-10-09T14:14:42;95325.88;;;21.39;29.31
28626;BME280;18905;42.668;23.364;2023-10-09T14:17:14;95481.75;;;22.33;29.82
28626;BME280;18905;42.668;23.364;2023-10-09T14:19:47;95412.00;;;21.61;31.01
28626;BME280;18905;42.668;23.364;2023-10-09T14:22:15;95468.25;;;22.14;31.24
28626;BME280;18905;42.668;23.364;2023-10-09T14:24:45;95351.75;;;21.35;31.53
28626;BME280;18905;42.668;23.364;2023-10-09T14:27:12;95364.28;;;21.32;30.95
28626;BME280;18905;42.668;23.364;2023-10-09T14:29:44;95343.28;;;21.14;30.79
28626;BME280;18905;42.668;23.364;2023-10-09T14:32:11;95318.44;;;20.96;31.09
28626;BME280;18905;42.668;23.364;2023-10-09T14:34:42;95413.47;;;21.48;30.55
28626;BME280;18905;42.668;23.364;2023-10-09T14:37:12;95403.06;;;21.27;32.43
28626;BME280;18905;42.668;23.364;2023-10-09T14:39:41;95342.75;;;20.64;33.85
28626;BME280;18905;42.668;23.364;2023-10-09T14:42:07;95363.47;;;20.92;33.62
28626;BME280;18905;42.668;23.364;2023-10-09T14:44:36;95398.66;;;21.19;33.96
28626;BME280;18905;42.668;23.364;2023-10-09T14:47:06;95360.34;;;21.30;33.62
28626;BME280;18905;42.668;23.364;2023-10-09T14:49:35;95454.56;;;22.21;35.47
28626;BME280;18905;42.668;23.364;2023-10-09T14:52:05;95322.34;;;21.39;34.57
28626;BME280;18905;42.668;23.364;2023-10-09T14:54:34;95331.25;;;21.29;31.82
28626;BME280;18905;42.668;23.364;2023-10-09T14:57:01;95349.91;;;20.72;32.57
28626;BME280;18905;42.668;23.364;2023-10-09T14:59:33;95308.94;;;20.53;33.41
28626;BME280;18905;42.668;23.364;2023-10-09T15:02:00;95329.44;;;20.63;33.74
28626;BME280;18905;42.668;23.364;2023-10-09T15:04:28;95336.63;;;20.78;35.30
28626;BME280;18905;42.668;23.364;2023-10-09T15:06:55;95315.97;;;20.21;32.35
28626;BME280;18905;42.668;23.364;2023-10-09T15:09:22;95330.03;;;20.16;32.46
28626;BME280;18905;42.668;23.364;2023-10-09T15:11:51;95462.28;;;20.92;32.69
28626;BME280;18905;42.668;23.364;2023-10-09T15:14:19;95462.13;;;20.81;32.99
28626;BME280;18905;42.668;23.364;2023-10-09T15:16:46;95358.44;;;20.31;37.89
28626;BME280;18905;42.668;23.364;2023-10-09T15:19:14;95410.38;;;20.79;35.19
28626;BME280;18905;42.668;23.364;2023-10-09T15:21:42;95446.09;;;21.16;35.28
28626;BME280;18905;42.668;23.364;2023-10-09T15:24:12;95300.50;;;20.06;38.10
28626;BME280;18905;42.668;23.364;2023-10-09T15:26:41;95337.16;;;20.54;35.13
28626;BME280;18905;42.668;23.364;2023-10-09T15:29:07;95325.91;;;20.66;36.11
28626;BME280;18905;42.668;23.364;2023-10-09T15:31:35;95403.31;;;21.12;32.51
28626;BME280;18905;42.668;23.364;2023-10-09T15:34:02;95398.78;;;20.93;34.83
28626;BME280;18905;42.668;23.364;2023-10-09T15:36:28;95364.84;;;20.78;33.00
28626;BME280;18905;42.668;23.364;2023-10-09T15:38:56;95337.75;;;20.73;35.84
28626;BME280;18905;42.668;23.364;2023-10-09T15:41:28;95444.56;;;21.19;33.27
28626;BME280;18905;42.668;23.364;2023-10-09T15:43:58;95360.41;;;20.67;34.10
28626;BME280;18905;42.668;23.364;2023-10-09T15:46:24;95318.28;;;20.49;33.89
28626;BME280;18905;42.668;23.364;2023-10-09T15:48:51;95343.66;;;20.75;34.20
28626;BME280;18905;42.668;23.364;2023-10-09T15:51:19;95314.53;;;20.64;35.23
28626;BME280;18905;42.668;23.364;2023-10-09T15:53:53;95366.31;;;21.02;34.14
28626;BME280;18905;42.668;23.364;2023-10-09T15:56:22;95329.03;;;20.64;33.53
28626;BME280;18905;42.668;23.364;2023-10-09T15:58:48;95443.25;;;21.42;34.63
28626;BME280;18905;42.668;23.364;2023-10-09T16:01:19;95448.72;;;21.42;34.71
28626;BME280;18905;42.668;23.364;2023-10-09T16:03:46;95368.50;;;20.86;34.92
28626;BME280;18905;42.668;23.364;2023-10-09T16:06:16;95443.53;;;21.34;35.14
28626;BME280;18905;42.668;23.364;2023-10-09T16:08:46;95451.34;;;21.28;34.45
28626;BME280;18905;42.668;23.364;2023-10-09T16:11:20;95375.03;;;20.74;35.07
28626;BME280;18905;42.668;23.364;2023-10-09T16:13:54;95363.09;;;20.60;37.24
28626;BME280;18905;42.668;23.364;2023-10-09T16:16:29;95375.66;;;20.64;35.19
28626;BME280;18905;42.668;23.364;2023-10-09T16:18:58;95459.38;;;21.11;36.47
28626;BME280;18905;42.668;23.364;2023-10-09T16:21:25;95332.91;;;20.01;35.23
28626;BME280;18905;42.668;23.364;2023-10-09T16:23:51;95470.16;;;20.93;38.11
28626;BME280;18905;42.668;23.364;2023-10-09T16:26:17;95430.44;;;20.54;37.19
28626;BME280;18905;42.668;23.364;2023-10-09T16:28:43;95488.22;;;20.68;36.97
28626;BME280;18905;42.668;23.364;2023-10-09T16:31:10;95475.75;;;20.44;37.55
28626;BME280;18905;42.668;23.364;2023-10-09T16:33:40;95464.53;;;20.27;37.98
28626;BME280;18905;42.668;23.364;2023-10-09T16:36:05;95441.28;;;19.95;38.65
28626;BME280;18905;42.668;23.364;2023-10-09T16:38:32;95376.94;;;19.37;38.92
28626;BME280;18905;42.668;23.364;2023-10-09T16:41:01;95382.06;;;19.38;38.89
28626;BME280;18905;42.668;23.364;2023-10-09T16:43:33;95462.72;;;19.89;37.70
28626;BME280;18905;42.668;23.364;2023-10-09T16:46:01;95345.09;;;19.06;37.78
28626;BME280;18905;42.668;23.364;2023-10-09T16:48:34;95326.41;;;18.89;37.46
28626;BME280;18905;42.668;23.364;2023-10-09T16:51:03;95414.66;;;19.47;37.81
28626;BME280;18905;42.668;23.364;2023-10-09T16:53:31;95457.38;;;19.74;38.77
28626;BME280;18905;42.668;23.364;2023-10-09T16:56:02;95315.34;;;18.82;38.51
28626;BME280;18905;42.668;23.364;2023-10-09T16:58:35;95388.44;;;19.04;40.10
28626;BME280;18905;42.668;23.364;2023-10-09T17:01:00;95378.84;;;18.91;40.23
28626;BME280;18905;42.668;23.364;2023-10-09T17:03:28;95460.31;;;19.20;40.57
28626;BME280;18905;42.668;23.364;2023-10-09T17:05:54;95332.03;;;18.36;41.35
28626;BME280;18905;42.668;23.364;2023-10-09T17:08:24;95304.41;;;18.03;41.41
28626;BME280;18905;42.668;23.364;2023-10-09T17:10:57;95361.03;;;18.40;41.71
28626;BME280;18905;42.668;23.364;2023-10-09T17:13:24;95321.84;;;17.98;41.44
28626;BME280;18905;42.668;23.364;2023-10-09T17:15:50;95454.09;;;18.82;42.04
28626;BME280;18905;42.668;23.364;2023-10-09T17:18:22;95323.06;;;18.01;42.41
28626;BME280;18905;42.668;23.364;2023-10-09T17:20:50;95446.94;;;18.77;42.25
28626;BME280;18905;42.668;23.364;2023-10-09T17:23:16;95432.63;;;18.65;43.35
28626;BME280;18905;42.668;23.364;2023-10-09T17:25:41;95327.88;;;17.88;44.48
28626;BME280;18905;42.668;23.364;2023-10-09T17:28:11;95355.88;;;18.01;44.82
28626;BME280;18905;42.668;23.364;2023-10-09T17:30:45;95406.56;;;18.33;45.40
28626;BME280;18905;42.668;23.364;2023-10-09T17:33:14;95364.16;;;18.04;45.15
28626;BME280;18905;42.668;23.364;2023-10-09T17:35:44;95316.78;;;17.81;44.37
28626;BME280;18905;42.668;23.364;2023-10-09T17:38:09;95297.22;;;17.60;45.00
28626;BME280;18905;42.668;23.364;2023-10-09T17:40:35;95363.56;;;17.95;45.75
28626;BME280;18905;42.668;23.364;2023-10-09T17:43:00;95435.72;;;18.44;46.86
28626;BME280;18905;42.668;23.364;2023-10-09T17:45:26;95359.72;;;17.81;46.69
28626;BME280;18905;42.668;23.364;2023-10-09T17:47:52;95354.91;;;17.74;47.13
28626;BME280;18905;42.668;23.364;2023-10-09T17:50:18;95328.38;;;17.40;48.90
28626;BME280;18905;42.668;23.364;2023-10-09T17:52:46;95397.25;;;17.84;48.38
28626;BME280;18905;42.668;23.364;2023-10-09T17:55:12;95340.94;;;17.45;47.81
28626;BME280;18905;42.668;23.364;2023-10-09T17:57:38;95367.53;;;17.48;49.69
28626;BME280;18905;42.668;23.364;2023-10-09T18:00:07;95355.38;;;17.30;48.18
28626;BME280;18905;42.668;23.364;2023-10-09T18:02:49;95284.88;;;16.85;46.14
28626;BME280;18905;42.668;23.364;2023-10-09T18:05:17;95342.00;;;17.09;45.56
28626;BME280;18905;42.668;23.364;2023-10-09T18:07:45;95281.19;;;16.47;45.74
28626;BME280;18905;42.668;23.364;2023-10-09T18:10:11;95277.72;;;16.50;46.56
28626;BME280;18905;42.668;23.364;2023-10-09T18:12:41;95325.53;;;16.75;45.93
28626;BME280;18905;42.668;23.364;2023-10-09T18:15:07;95403.88;;;17.36;46.13
28626;BME280;18905;42.668;23.364;2023-10-09T18:17:42;95332.13;;;16.89;46.68
28626;BME280;18905;42.668;23.364;2023-10-09T18:20:09;95276.97;;;16.65;46.71
28626;BME280;18905;42.668;23.364;2023-10-09T18:22:36;95293.16;;;16.73;46.56
28626;BME280;18905;42.668;23.364;2023-10-09T18:27:40;95309.50;;;16.73;49.58
28626;BME280;18905;42.668;23.364;2023-10-09T18:40:54;95413.09;;;17.01;51.63
28626;BME280;18905;42.668;23.364;2023-10-09T18:43:21;95279.13;;;16.16;50.48
28626;BME280;18905;42.668;23.364;2023-10-09T19:01:20;95299.84;;;16.05;53.41
28626;BME280;18905;42.668;23.364;2023-10-09T19:03:46;95373.72;;;16.43;54.86
28626;BME280;18905;42.668;23.364;2023-10-09T19:06:16;95344.72;;;16.23;55.25
28626;BME280;18905;42.668;23.364;2023-10-09T19:08:47;95412.03;;;16.62;56.57
28626;BME280;18905;42.668;23.364;2023-10-09T19:11:14;95271.00;;;15.77;57.46
28626;BME280;18905;42.668;23.364;2023-10-09T19:13:41;95317.31;;;16.04;57.92
28626;BME280;18905;42.668;23.364;2023-10-09T19:16:07;95333.84;;;16.11;58.75
28626;BME280;18905;42.668;23.364;2023-10-09T19:18:34;95340.09;;;16.12;58.21
28626;BME280;18905;42.668;23.364;2023-10-09T19:21:09;95328.56;;;16.03;58.95
28626;BME280;18905;42.668;23.364;2023-10-09T19:23:40;95287.81;;;15.67;60.78
28626;BME280;18905;42.668;23.364;2023-10-09T19:26:06;95338.47;;;15.95;62.05
28626;BME280;18905;42.668;23.364;2023-10-09T19:28:33;95285.59;;;15.57;61.08
28626;BME280;18905;42.668;23.364;2023-10-09T19:31:06;95425.06;;;16.41;58.02
28626;BME280;18905;42.668;23.364;2023-10-09T19:33:35;95294.09;;;15.55;57.13